CSF2 weather

Innisfail Hospital Heliport
Innisfail, Alberta, Canada

Public forecast

Using degrees Celsius for public forecast. Weather courtesy of forecast.io.

METAR (pilot weather report)

Closest report is Red Deer Regional Airport, 10.0 nm (18.6 km) NNE. Retrieved 2019/09/17 05:00 UTC (20 minutes ago):

CYQF 170500Z 01003KT 15SM FEW040CB BKN080 10/10 A2974 RMK CB2AC3 SLP086 DENSITY ALT 3400FT

TAF (pilot weather forecast)

Forecast is more than 12 hours old.

Closest forecast is Red Deer Regional Airport, 10.0 nm (18.6 km) NNE. Retrieved 2019/09/16 00:39 UTC (1 day ago):

TAF CYQF 162338Z 1700/1712 36008KT P6SM SCT030 BKN200 FM170100 30010KT P6SM SCT030 BKN060 TEMPO 1701/1708 P6SM -SHRA BKN030 BKN060 FM170800 VRB03KT P6SM SCT006 BKN040 TEMPO 1708/1712 4SM -SHRA BR BKN006 OVC040 RMK NXT FCST BY 170600Z